sensor_id;sensor_type;location;lat;lon;timestamp;temperature;humidity
41262;DHT22;29629;52.532;13.352;2022-07-09T00:00:29;16.20;99.90
41262;DHT22;29629;52.532;13.352;2022-07-09T00:02:56;16.20;99.90
41262;DHT22;29629;52.532;13.352;2022-07-09T00:05:24;16.10;99.90
41262;DHT22;29629;52.532;13.352;2022-07-09T00:07:51;16.10;99.90
41262;DHT22;29629;52.532;13.352;2022-07-09T00:10:18;16.00;99.90
41262;DHT22;29629;52.532;13.352;2022-07-09T00:12:45;16.00;99.90
41262;DHT22;29629;52.532;13.352;2022-07-09T00:15:12;16.00;99.90
41262;DHT22;29629;52.532;13.352;2022-07-09T00:17:39;15.90;99.90
41262;DHT22;29629;52.532;13.352;2022-07-09T00:20:08;15.90;99.90
41262;DHT22;29629;52.532;13.352;2022-07-09T00:22:36;15.90;99.90
41262;DHT22;29629;52.532;13.352;2022-07-09T00:25:04;15.80;99.90
41262;DHT22;29629;52.532;13.352;2022-07-09T00:27:31;15.80;99.90
41262;DHT22;29629;52.532;13.352;2022-07-09T00:29:58;15.80;99.90
41262;DHT22;29629;52.532;13.352;2022-07-09T00:32:25;15.80;99.90
41262;DHT22;29629;52.532;13.352;2022-07-09T00:34:51;15.70;99.90
41262;DHT22;29629;52.532;13.352;2022-07-09T00:37:18;15.70;99.90
41262;DHT22;29629;52.532;13.352;2022-07-09T00:39:46;15.60;99.90
41262;DHT22;29629;52.532;13.352;2022-07-09T00:42:13;15.60;99.90
41262;DHT22;29629;52.532;13.352;2022-07-09T00:44:40;15.60;99.90
41262;DHT22;29629;52.532;13.352;2022-07-09T00:47:08;15.50;99.90
41262;DHT22;29629;52.532;13.352;2022-07-09T00:49:37;15.50;99.90
41262;DHT22;29629;52.532;13.352;2022-07-09T00:52:05;15.40;99.90
41262;DHT22;29629;52.532;13.352;2022-07-09T00:54:33;15.40;99.90
41262;DHT22;29629;52.532;13.352;2022-07-09T00:57:03;15.40;99.90
41262;DHT22;29629;52.532;13.352;2022-07-09T00:59:31;15.40;99.90
41262;DHT22;29629;52.532;13.352;2022-07-09T01:02:00;15.40;99.90
41262;DHT22;29629;52.532;13.352;2022-07-09T01:04:27;15.30;99.90
41262;DHT22;29629;52.532;13.352;2022-07-09T01:06:54;15.30;99.90
41262;DHT22;29629;52.532;13.352;2022-07-09T01:09:23;15.30;99.90
41262;DHT22;29629;52.532;13.352;2022-07-09T01:11:50;15.20;99.90
41262;DHT22;29629;52.532;13.352;2022-07-09T01:14:19;15.20;99.90
41262;DHT22;29629;52.532;13.352;2022-07-09T01:16:46;15.20;99.90
41262;DHT22;29629;52.532;13.352;2022-07-09T01:19:13;15.10;99.90
41262;DHT22;29629;52.532;13.352;2022-07-09T01:21:41;15.10;99.90
41262;DHT22;29629;52.532;13.352;2022-07-09T01:24:08;15.10;99.90
41262;DHT22;29629;52.532;13.352;2022-07-09T01:26:35;15.10;99.90
41262;DHT22;29629;52.532;13.352;2022-07-09T01:29:02;15.10;99.90
41262;DHT22;29629;52.532;13.352;2022-07-09T01:31:29;15.00;99.90
41262;DHT22;29629;52.532;13.352;2022-07-09T01:33:56;15.00;99.90
41262;DHT22;29629;52.532;13.352;2022-07-09T01:36:22;15.00;99.90
41262;DHT22;29629;52.532;13.352;2022-07-09T01:38:50;14.90;99.90
41262;DHT22;29629;52.532;13.352;2022-07-09T01:41:17;14.90;99.90
41262;DHT22;29629;52.532;13.352;2022-07-09T01:43:44;14.80;99.90
41262;DHT22;29629;52.532;13.352;2022-07-09T01:46:11;14.80;99.90
41262;DHT22;29629;52.532;13.352;2022-07-09T01:48:38;14.80;99.90
41262;DHT22;29629;52.532;13.352;2022-07-09T01:51:07;14.80;99.90
41262;DHT22;29629;52.532;13.352;2022-07-09T01:53:35;14.70;99.90
41262;DHT22;29629;52.532;13.352;2022-07-09T01:56:06;14.70;99.90
41262;DHT22;29629;52.532;13.352;2022-07-09T01:58:33;14.70;99.90
41262;DHT22;29629;52.532;13.352;2022-07-09T02:01:00;14.70;99.90
41262;DHT22;29629;52.532;13.352;2022-07-09T02:03:28;14.60;99.90
41262;DHT22;29629;52.532;13.352;2022-07-09T02:05:54;14.60;99.90
41262;DHT22;29629;52.532;13.352;2022-07-09T02:08:21;14.50;99.90
41262;DHT22;29629;52.532;13.352;2022-07-09T02:10:49;14.60;99.90
41262;DHT22;29629;52.532;13.352;2022-07-09T02:13:17;14.50;99.90
41262;DHT22;29629;52.532;13.352;2022-07-09T02:15:44;14.50;99.90
41262;DHT22;29629;52.532;13.352;2022-07-09T02:18:12;14.40;99.90
41262;DHT22;29629;52.532;13.352;2022-07-09T02:20:39;14.40;99.90
41262;DHT22;29629;52.532;13.352;2022-07-09T02:23:05;14.40;99.90
41262;DHT22;29629;52.532;13.352;2022-07-09T02:25:33;14.30;99.90
41262;DHT22;29629;52.532;13.352;2022-07-09T02:28:00;14.30;99.90
41262;DHT22;29629;52.532;13.352;2022-07-09T02:30:28;14.30;99.90
41262;DHT22;29629;52.532;13.352;2022-07-09T02:32:55;14.30;99.90
41262;DHT22;29629;52.532;13.352;2022-07-09T02:35:22;14.30;99.90
41262;DHT22;29629;52.532;13.352;2022-07-09T02:37:49;14.30;99.90
41262;DHT22;29629;52.532;13.352;2022-07-09T02:40:15;14.40;99.90
41262;DHT22;29629;52.532;13.352;2022-07-09T02:42:42;14.30;99.90
41262;DHT22;29629;52.532;13.352;2022-07-09T02:45:09;14.40;99.90
41262;DHT22;29629;52.532;13.352;2022-07-09T02:47:38;14.40;99.90
41262;DHT22;29629;52.532;13.352;2022-07-09T02:50:05;14.50;99.90
41262;DHT22;29629;52.532;13.352;2022-07-09T02:52:32;14.60;99.90
41262;DHT22;29629;52.532;13.352;2022-07-09T02:54:59;14.60;99.90
41262;DHT22;29629;52.532;13.352;2022-07-09T02:57:26;14.60;99.90
41262;DHT22;29629;52.532;13.352;2022-07-09T02:59:52;14.70;99.90
41262;DHT22;29629;52.532;13.352;2022-07-09T03:02:19;14.70;99.90
41262;DHT22;29629;52.532;13.352;2022-07-09T03:04:48;14.70;99.90
41262;DHT22;29629;52.532;13.352;2022-07-09T03:07:14;14.70;99.90
41262;DHT22;29629;52.532;13.352;2022-07-09T03:09:41;14.70;99.90
41262;DHT22;29629;52.532;13.352;2022-07-09T03:12:08;14.80;99.90
41262;DHT22;29629;52.532;13.352;2022-07-09T03:14:35;14.70;99.90
41262;DHT22;29629;52.532;13.352;2022-07-09T03:17:02;14.80;99.90
41262;DHT22;29629;52.532;13.352;2022-07-09T03:19:29;14.90;99.90
41262;DHT22;29629;52.532;13.352;2022-07-09T03:21:57;14.80;99.90
41262;DHT22;29629;52.532;13.352;2022-07-09T03:24:24;14.90;99.90
41262;DHT22;29629;52.532;13.352;2022-07-09T03:26:51;14.90;99.90
41262;DHT22;29629;52.532;13.352;2022-07-09T03:29:18;14.90;99.90
41262;DHT22;29629;52.532;13.352;2022-07-09T03:31:44;14.90;99.90
41262;DHT22;29629;52.532;13.352;2022-07-09T03:34:11;15.00;99.90
41262;DHT22;29629;52.532;13.352;2022-07-09T03:36:38;15.00;99.90
41262;DHT22;29629;52.532;13.352;2022-07-09T03:39:06;15.00;99.90
41262;DHT22;29629;52.532;13.352;2022-07-09T03:41:33;15.00;99.90
41262;DHT22;29629;52.532;13.352;2022-07-09T03:44:00;15.00;99.90
41262;DHT22;29629;52.532;13.352;2022-07-09T03:46:26;15.10;99.90
41262;DHT22;29629;52.532;13.352;2022-07-09T03:48:54;15.10;99.90
41262;DHT22;29629;52.532;13.352;2022-07-09T03:51:21;15.10;99.90
41262;DHT22;29629;52.532;13.352;2022-07-09T03:53:48;15.10;99.90
41262;DHT22;29629;52.532;13.352;2022-07-09T03:56:16;15.20;99.90
41262;DHT22;29629;52.532;13.352;2022-07-09T03:58:45;15.20;99.90
41262;DHT22;29629;52.532;13.352;2022-07-09T04:01:12;15.20;99.90
41262;DHT22;29629;52.532;13.352;2022-07-09T04:03:39;15.10;99.90
41262;DHT22;29629;52.532;13.352;2022-07-09T04:06:06;15.10;99.90
41262;DHT22;29629;52.532;13.352;2022-07-09T04:08:32;15.20;99.90
41262;DHT22;29629;52.532;13.352;2022-07-09T04:10:59;15.20;99.90
41262;DHT22;29629;52.532;13.352;2022-07-09T04:13:28;15.30;99.90
41262;DHT22;29629;52.532;13.352;2022-07-09T04:15:55;15.20;99.90
41262;DHT22;29629;52.532;13.352;2022-07-09T04:18:21;15.20;99.90
41262;DHT22;29629;52.532;13.352;2022-07-09T04:20:48;15.20;99.90
41262;DHT22;29629;52.532;13.352;2022-07-09T04:23:16;15.30;99.90
41262;DHT22;29629;52.532;13.352;2022-07-09T04:25:43;15.20;99.90
41262;DHT22;29629;52.532;13.352;2022-07-09T04:28:11;15.20;99.90
41262;DHT22;29629;52.532;13.352;2022-07-09T04:30:39;15.20;99.90
41262;DHT22;29629;52.532;13.352;2022-07-09T04:33:06;15.30;99.90
41262;DHT22;29629;52.532;13.352;2022-07-09T04:35:33;15.30;99.90
41262;DHT22;29629;52.532;13.352;2022-07-09T04:38:01;15.30;99.90
41262;DHT22;29629;52.532;13.352;2022-07-09T04:40:28;15.40;99.90
41262;DHT22;29629;52.532;13.352;2022-07-09T04:42:54;15.40;99.90
41262;DHT22;29629;52.532;13.352;2022-07-09T04:45:21;15.40;99.90
41262;DHT22;29629;52.532;13.352;2022-07-09T04:47:49;15.50;99.90
41262;DHT22;29629;52.532;13.352;2022-07-09T04:50:16;15.50;99.90
41262;DHT22;29629;52.532;13.352;2022-07-09T04:52:43;15.50;99.90
41262;DHT22;29629;52.532;13.352;2022-07-09T04:55:10;15.60;99.90
41262;DHT22;29629;52.532;13.352;2022-07-09T04:57:37;15.60;99.90
41262;DHT22;29629;52.532;13.352;2022-07-09T05:00:05;15.60;99.90
41262;DHT22;29629;52.532;13.352;2022-07-09T05:02:32;15.60;99.90
41262;DHT22;29629;52.532;13.352;2022-07-09T05:05:00;15.60;99.90
41262;DHT22;29629;52.532;13.352;2022-07-09T05:07:29;15.60;99.90
41262;DHT22;29629;52.532;13.352;2022-07-09T05:09:56;15.70;99.90
41262;DHT22;29629;52.532;13.352;2022-07-09T05:12:23;15.70;99.90
41262;DHT22;29629;52.532;13.352;2022-07-09T05:14:49;15.70;99.90
41262;DHT22;29629;52.532;13.352;2022-07-09T05:17:16;15.70;99.90
41262;DHT22;29629;52.532;13.352;2022-07-09T05:19:43;15.70;99.90
41262;DHT22;29629;52.532;13.352;2022-07-09T05:22:11;15.70;99.90
41262;DHT22;29629;52.532;13.352;2022-07-09T05:24:38;15.70;99.90
41262;DHT22;29629;52.532;13.352;2022-07-09T05:27:06;15.80;99.90
41262;DHT22;29629;52.532;13.352;2022-07-09T05:29:34;15.90;99.90
41262;DHT22;29629;52.532;13.352;2022-07-09T05:32:00;15.90;99.90
41262;DHT22;29629;52.532;13.352;2022-07-09T05:34:27;15.90;99.90
41262;DHT22;29629;52.532;13.352;2022-07-09T05:36:54;15.90;99.90
41262;DHT22;29629;52.532;13.352;2022-07-09T05:39:22;16.00;99.90
41262;DHT22;29629;52.532;13.352;2022-07-09T05:41:49;16.10;99.90
41262;DHT22;29629;52.532;13.352;2022-07-09T05:44:16;16.20;99.90
41262;DHT22;29629;52.532;13.352;2022-07-09T05:46:43;16.30;99.90
41262;DHT22;29629;52.532;13.352;2022-07-09T05:49:10;16.40;99.90
41262;DHT22;29629;52.532;13.352;2022-07-09T05:51:37;16.40;99.90
41262;DHT22;29629;52.532;13.352;2022-07-09T05:54:04;16.60;99.90
41262;DHT22;29629;52.532;13.352;2022-07-09T05:56:32;16.60;99.90
41262;DHT22;29629;52.532;13.352;2022-07-09T05:59:00;16.60;99.90
41262;DHT22;29629;52.532;13.352;2022-07-09T06:01:27;16.70;99.90
41262;DHT22;29629;52.532;13.352;2022-07-09T06:03:54;16.70;99.90
41262;DHT22;29629;52.532;13.352;2022-07-09T06:06:21;16.80;99.90
41262;DHT22;29629;52.532;13.352;2022-07-09T06:08:48;17.10;99.90
41262;DHT22;29629;52.532;13.352;2022-07-09T06:11:15;17.10;99.90
41262;DHT22;29629;52.532;13.352;2022-07-09T06:13:43;17.20;99.90
41262;DHT22;29629;52.532;13.352;2022-07-09T06:16:10;17.30;99.90
41262;DHT22;29629;52.532;13.352;2022-07-09T06:18:37;17.20;99.90
41262;DHT22;29629;52.532;13.352;2022-07-09T06:21:04;17.20;99.90
41262;DHT22;29629;52.532;13.352;2022-07-09T06:23:31;17.30;99.90
41262;DHT22;29629;52.532;13.352;2022-07-09T06:25:57;17.20;99.90
41262;DHT22;29629;52.532;13.352;2022-07-09T06:28:24;17.50;99.90
41262;DHT22;29629;52.532;13.352;2022-07-09T06:30:52;17.50;99.90
41262;DHT22;29629;52.532;13.352;2022-07-09T06:33:19;17.60;99.90
41262;DHT22;29629;52.532;13.352;2022-07-09T06:35:46;17.70;99.90
41262;DHT22;29629;52.532;13.352;2022-07-09T06:38:12;17.70;99.90
41262;DHT22;29629;52.532;13.352;2022-07-09T06:40:39;17.70;99.90
41262;DHT22;29629;52.532;13.352;2022-07-09T06:43:06;17.80;99.90
41262;DHT22;29629;52.532;13.352;2022-07-09T06:45:34;17.70;99.90
41262;DHT22;29629;52.532;13.352;2022-07-09T06:48:03;17.70;99.90
41262;DHT22;29629;52.532;13.352;2022-07-09T06:50:30;17.70;99.90
41262;DHT22;29629;52.532;13.352;2022-07-09T06:52:57;17.70;99.90
41262;DHT22;29629;52.532;13.352;2022-07-09T06:55:24;18.00;99.90
41262;DHT22;29629;52.532;13.352;2022-07-09T06:57:51;18.10;99.90
41262;DHT22;29629;52.532;13.352;2022-07-09T07:00:17;18.10;99.90
41262;DHT22;29629;52.532;13.352;2022-07-09T07:02:44;18.20;99.90
41262;DHT22;29629;52.532;13.352;2022-07-09T07:05:12;18.10;99.90
41262;DHT22;29629;52.532;13.352;2022-07-09T07:07:39;18.10;99.90
41262;DHT22;29629;52.532;13.352;2022-07-09T07:10:06;18.20;99.90
41262;DHT22;29629;52.532;13.352;2022-07-09T07:12:34;18.40;99.90
41262;DHT22;29629;52.532;13.352;2022-07-09T07:15:01;18.50;99.90
41262;DHT22;29629;52.532;13.352;2022-07-09T07:17:28;18.50;99.90
41262;DHT22;29629;52.532;13.352;2022-07-09T07:19:55;18.50;99.90
41262;DHT22;29629;52.532;13.352;2022-07-09T07:22:23;18.20;99.90
41262;DHT22;29629;52.532;13.352;2022-07-09T07:24:50;18.30;99.90
41262;DHT22;29629;52.532;13.352;2022-07-09T07:27:17;18.30;99.90
41262;DHT22;29629;52.532;13.352;2022-07-09T07:29:44;18.30;99.90
41262;DHT22;29629;52.532;13.352;2022-07-09T07:32:10;18.30;99.90
41262;DHT22;29629;52.532;13.352;2022-07-09T07:34:37;18.40;99.90
41262;DHT22;29629;52.532;13.352;2022-07-09T07:37:04;18.50;99.90
41262;DHT22;29629;52.532;13.352;2022-07-09T07:39:32;18.70;99.90
41262;DHT22;29629;52.532;13.352;2022-07-09T07:41:59;18.70;99.90
41262;DHT22;29629;52.532;13.352;2022-07-09T07:44:26;18.70;99.90
41262;DHT22;29629;52.532;13.352;2022-07-09T07:46:54;18.70;99.90
41262;DHT22;29629;52.532;13.352;2022-07-09T07:49:21;18.70;99.90
41262;DHT22;29629;52.532;13.352;2022-07-09T07:51:48;18.70;99.90
41262;DHT22;29629;52.532;13.352;2022-07-09T07:54:14;18.70;99.90
41262;DHT22;29629;52.532;13.352;2022-07-09T07:56:43;18.80;99.90
41262;DHT22;29629;52.532;13.352;2022-07-09T07:59:09;18.80;99.90
41262;DHT22;29629;52.532;13.352;2022-07-09T08:01:36;18.80;99.90
41262;DHT22;29629;52.532;13.352;2022-07-09T08:04:03;18.70;99.90
41262;DHT22;29629;52.532;13.352;2022-07-09T08:06:30;18.60;99.90
41262;DHT22;29629;52.532;13.352;2022-07-09T08:08:57;18.50;99.90
41262;DHT22;29629;52.532;13.352;2022-07-09T08:11:24;18.50;99.90
41262;DHT22;29629;52.532;13.352;2022-07-09T08:13:52;18.50;99.90
41262;DHT22;29629;52.532;13.352;2022-07-09T08:16:19;18.50;99.90
41262;DHT22;29629;52.532;13.352;2022-07-09T08:18:46;18.50;99.90
41262;DHT22;29629;52.532;13.352;2022-07-09T08:21:13;18.60;99.90
41262;DHT22;29629;52.532;13.352;2022-07-09T08:23:40;18.70;99.90
41262;DHT22;29629;52.532;13.352;2022-07-09T08:26:20;18.80;99.90
41262;DHT22;29629;52.532;13.352;2022-07-09T08:28:47;19.10;99.90
41262;DHT22;29629;52.532;13.352;2022-07-09T08:31:16;19.00;99.90
41262;DHT22;29629;52.532;13.352;2022-07-09T08:33:43;19.00;99.90
41262;DHT22;29629;52.532;13.352;2022-07-09T08:36:11;18.80;99.90
41262;DHT22;29629;52.532;13.352;2022-07-09T08:38:38;18.80;99.90
41262;DHT22;29629;52.532;13.352;2022-07-09T08:41:05;19.20;99.90
41262;DHT22;29629;52.532;13.352;2022-07-09T08:43:33;19.50;99.90
41262;DHT22;29629;52.532;13.352;2022-07-09T08:46:00;19.60;99.90
41262;DHT22;29629;52.532;13.352;2022-07-09T08:48:32;19.00;99.90
41262;DHT22;29629;52.532;13.352;2022-07-09T08:51:00;19.30;99.90
41262;DHT22;29629;52.532;13.352;2022-07-09T08:53:27;19.60;99.90
41262;DHT22;29629;52.532;13.352;2022-07-09T08:55:55;19.80;99.90
41262;DHT22;29629;52.532;13.352;2022-07-09T08:58:22;20.10;99.90
41262;DHT22;29629;52.532;13.352;2022-07-09T09:00:49;20.20;99.90
41262;DHT22;29629;52.532;13.352;2022-07-09T09:03:16;20.20;99.90
41262;DHT22;29629;52.532;13.352;2022-07-09T09:05:45;20.10;99.90
41262;DHT22;29629;52.532;13.352;2022-07-09T09:08:19;19.80;99.90
41262;DHT22;29629;52.532;13.352;2022-07-09T09:10:47;19.40;99.90
41262;DHT22;29629;52.532;13.352;2022-07-09T09:13:15;19.40;99.90
41262;DHT22;29629;52.532;13.352;2022-07-09T09:15:43;19.30;99.90
41262;DHT22;29629;52.532;13.352;2022-07-09T09:18:10;19.20;99.90
41262;DHT22;29629;52.532;13.352;2022-07-09T09:20:38;19.20;99.90
41262;DHT22;29629;52.532;13.352;2022-07-09T09:23:06;19.30;99.90
41262;DHT22;29629;52.532;13.352;2022-07-09T09:25:37;19.20;99.90
41262;DHT22;29629;52.532;13.352;2022-07-09T09:28:04;19.10;99.90
41262;DHT22;29629;52.532;13.352;2022-07-09T09:30:31;18.90;99.90
41262;DHT22;29629;52.532;13.352;2022-07-09T09:32:58;18.70;99.90
41262;DHT22;29629;52.532;13.352;2022-07-09T09:35:26;18.60;99.90
41262;DHT22;29629;52.532;13.352;2022-07-09T09:37:54;18.60;99.90
41262;DHT22;29629;52.532;13.352;2022-07-09T09:40:23;18.70;99.90
41262;DHT22;29629;52.532;13.352;2022-07-09T09:42:50;18.50;99.90
41262;DHT22;29629;52.532;13.352;2022-07-09T09:45:18;18.70;99.90
41262;DHT22;29629;52.532;13.352;2022-07-09T09:47:47;18.70;99.90
41262;DHT22;29629;52.532;13.352;2022-07-09T09:50:18;18.70;99.90
41262;DHT22;29629;52.532;13.352;2022-07-09T09:52:46;18.80;99.90
41262;DHT22;29629;52.532;13.352;2022-07-09T09:55:14;19.00;99.90
41262;DHT22;29629;52.532;13.352;2022-07-09T09:57:42;18.90;99.90
41262;DHT22;29629;52.532;13.352;2022-07-09T10:00:11;19.00;99.90
41262;DHT22;29629;52.532;13.352;2022-07-09T10:02:39;19.00;99.90
41262;DHT22;29629;52.532;13.352;2022-07-09T10:05:08;19.30;99.90
41262;DHT22;29629;52.532;13.352;2022-07-09T10:07:35;19.80;99.90
41262;DHT22;29629;52.532;13.352;2022-07-09T10:10:06;20.30;99.90
41262;DHT22;29629;52.532;13.352;2022-07-09T10:12:34;20.10;99.90
41262;DHT22;29629;52.532;13.352;2022-07-09T10:15:08;20.00;99.90
41262;DHT22;29629;52.532;13.352;2022-07-09T10:17:45;19.90;99.90
41262;DHT22;29629;52.532;13.352;2022-07-09T10:20:12;19.90;99.90
41262;DHT22;29629;52.532;13.352;2022-07-09T10:22:40;19.80;99.90
41262;DHT22;29629;52.532;13.352;2022-07-09T10:25:08;20.10;99.90
41262;DHT22;29629;52.532;13.352;2022-07-09T10:27:42;20.20;99.90
41262;DHT22;29629;52.532;13.352;2022-07-09T10:30:22;20.50;99.90
41262;DHT22;29629;52.532;13.352;2022-07-09T10:33:01;21.00;99.90
41262;DHT22;29629;52.532;13.352;2022-07-09T10:35:28;21.30;99.90
41262;DHT22;29629;52.532;13.352;2022-07-09T10:37:55;21.40;99.90
41262;DHT22;29629;52.532;13.352;2022-07-09T10:40:23;21.60;99.90
41262;DHT22;29629;52.532;13.352;2022-07-09T10:42:58;22.80;99.90
41262;DHT22;29629;52.532;13.352;2022-07-09T10:45:27;23.90;99.90
41262;DHT22;29629;52.532;13.352;2022-07-09T10:47:59;25.10;99.90
41262;DHT22;29629;52.532;13.352;2022-07-09T10:50:27;25.80;99.90
41262;DHT22;29629;52.532;13.352;2022-07-09T10:52:54;26.90;99.90
41262;DHT22;29629;52.532;13.352;2022-07-09T10:55:23;26.90;99.90
41262;DHT22;29629;52.532;13.352;2022-07-09T10:57:50;26.80;99.90
41262;DHT22;29629;52.532;13.352;2022-07-09T11:00:19;28.20;99.90
41262;DHT22;29629;52.532;13.352;2022-07-09T11:02:57;27.30;99.90
41262;DHT22;29629;52.532;13.352;2022-07-09T11:05:25;27.00;99.90
41262;DHT22;29629;52.532;13.352;2022-07-09T11:07:56;26.40;99.90
41262;DHT22;29629;52.532;13.352;2022-07-09T11:10:23;26.70;99.90
41262;DHT22;29629;52.532;13.352;2022-07-09T11:12:51;26.10;99.90
41262;DHT22;29629;52.532;13.352;2022-07-09T11:15:19;26.20;99.90
41262;DHT22;29629;52.532;13.352;2022-07-09T11:17:55;27.70;99.90
41262;DHT22;29629;52.532;13.352;2022-07-09T11:20:22;27.60;99.90
41262;DHT22;29629;52.532;13.352;2022-07-09T11:22:49;27.50;99.90
41262;DHT22;29629;52.532;13.352;2022-07-09T11:25:17;28.60;99.90
41262;DHT22;29629;52.532;13.352;2022-07-09T11:27:44;27.60;99.90
41262;DHT22;29629;52.532;13.352;2022-07-09T11:30:14;26.90;99.90
41262;DHT22;29629;52.532;13.352;2022-07-09T11:32:41;27.00;99.90
41262;DHT22;29629;52.532;13.352;2022-07-09T11:35:10;27.70;99.90
41262;DHT22;29629;52.532;13.352;2022-07-09T11:37:44;26.60;99.90
41262;DHT22;29629;52.532;13.352;2022-07-09T11:40:16;26.50;99.90
41262;DHT22;29629;52.532;13.352;2022-07-09T11:42:43;25.80;99.90
41262;DHT22;29629;52.532;13.352;2022-07-09T11:45:10;25.70;99.90
41262;DHT22;29629;52.532;13.352;2022-07-09T11:47:38;25.60;99.90
41262;DHT22;29629;52.532;13.352;2022-07-09T11:50:06;25.10;99.90
41262;DHT22;29629;52.532;13.352;2022-07-09T11:52:35;24.90;99.90
41262;DHT22;29629;52.532;13.352;2022-07-09T11:55:04;24.60;99.90
41262;DHT22;29629;52.532;13.352;2022-07-09T11:57:32;24.60;99.90
41262;DHT22;29629;52.532;13.352;2022-07-09T12:00:00;24.40;99.90
41262;DHT22;29629;52.532;13.352;2022-07-09T12:02:30;24.10;99.90
41262;DHT22;29629;52.532;13.352;2022-07-09T12:04:58;23.90;99.90
41262;DHT22;29629;52.532;13.352;2022-07-09T12:07:25;23.60;99.90
41262;DHT22;29629;52.532;13.352;2022-07-09T12:10:00;23.60;99.90
41262;DHT22;29629;52.532;13.352;2022-07-09T12:12:28;23.60;99.90
41262;DHT22;29629;52.532;13.352;2022-07-09T12:14:55;23.40;99.90
41262;DHT22;29629;52.532;13.352;2022-07-09T12:17:23;23.20;99.90
41262;DHT22;29629;52.532;13.352;2022-07-09T12:19:50;23.00;99.90
41262;DHT22;29629;52.532;13.352;2022-07-09T12:22:18;22.80;99.90
41262;DHT22;29629;52.532;13.352;2022-07-09T12:24:45;22.50;99.90
41262;DHT22;29629;52.532;13.352;2022-07-09T12:27:13;22.60;99.90
41262;DHT22;29629;52.532;13.352;2022-07-09T12:29:40;22.60;99.90
41262;DHT22;29629;52.532;13.352;2022-07-09T12:32:06;22.60;99.90
41262;DHT22;29629;52.532;13.352;2022-07-09T12:34:33;22.70;99.90
41262;DHT22;29629;52.532;13.352;2022-07-09T12:37:00;22.60;99.90
41262;DHT22;29629;52.532;13.352;2022-07-09T12:39:27;22.50;99.90
41262;DHT22;29629;52.532;13.352;2022-07-09T12:41:54;22.30;99.90
41262;DHT22;29629;52.532;13.352;2022-07-09T12:44:22;21.50;99.90
41262;DHT22;29629;52.532;13.352;2022-07-09T12:46:50;21.10;99.90
41262;DHT22;29629;52.532;13.352;2022-07-09T12:49:17;20.80;99.90
41262;DHT22;29629;52.532;13.352;2022-07-09T12:51:44;20.70;99.90
41262;DHT22;29629;52.532;13.352;2022-07-09T12:54:11;20.60;99.90
41262;DHT22;29629;52.532;13.352;2022-07-09T12:56:38;20.60;99.90
41262;DHT22;29629;52.532;13.352;2022-07-09T12:59:06;20.50;99.90
41262;DHT22;29629;52.532;13.352;2022-07-09T13:01:34;20.60;99.90
41262;DHT22;29629;52.532;13.352;2022-07-09T13:04:00;20.50;99.90
41262;DHT22;29629;52.532;13.352;2022-07-09T13:06:27;20.40;99.90
41262;DHT22;29629;52.532;13.352;2022-07-09T13:09:02;20.50;99.90
41262;DHT22;29629;52.532;13.352;2022-07-09T13:11:30;20.90;99.90
41262;DHT22;29629;52.532;13.352;2022-07-09T13:13:57;20.90;99.90
41262;DHT22;29629;52.532;13.352;2022-07-09T13:16:24;20.90;99.90
41262;DHT22;29629;52.532;13.352;2022-07-09T13:18:52;21.00;99.90
41262;DHT22;29629;52.532;13.352;2022-07-09T13:21:20;21.20;99.90
41262;DHT22;29629;52.532;13.352;2022-07-09T13:23:47;21.20;99.90
41262;DHT22;29629;52.532;13.352;2022-07-09T13:26:15;21.30;99.90
41262;DHT22;29629;52.532;13.352;2022-07-09T13:28:42;21.40;99.90
41262;DHT22;29629;52.532;13.352;2022-07-09T13:31:09;21.50;99.90
41262;DHT22;29629;52.532;13.352;2022-07-09T13:33:36;21.50;99.90
41262;DHT22;29629;52.532;13.352;2022-07-09T13:36:05;21.70;99.90
41262;DHT22;29629;52.532;13.352;2022-07-09T13:38:32;21.80;99.90
41262;DHT22;29629;52.532;13.352;2022-07-09T13:40:59;21.90;99.90
41262;DHT22;29629;52.532;13.352;2022-07-09T13:43:26;22.00;99.90
41262;DHT22;29629;52.532;13.352;2022-07-09T13:45:55;22.10;99.90
41262;DHT22;29629;52.532;13.352;2022-07-09T13:48:22;22.30;99.90
41262;DHT22;29629;52.532;13.352;2022-07-09T13:50:49;22.30;99.90
41262;DHT22;29629;52.532;13.352;2022-07-09T13:53:17;22.20;99.90
41262;DHT22;29629;52.532;13.352;2022-07-09T13:55:45;22.10;99.90
41262;DHT22;29629;52.532;13.352;2022-07-09T13:58:12;22.20;99.90
41262;DHT22;29629;52.532;13.352;2022-07-09T14:00:39;22.20;99.90
41262;DHT22;29629;52.532;13.352;2022-07-09T14:03:06;22.20;99.90
41262;DHT22;29629;52.532;13.352;2022-07-09T14:05:33;22.00;99.90
41262;DHT22;29629;52.532;13.352;2022-07-09T14:08:02;21.80;99.90
41262;DHT22;29629;52.532;13.352;2022-07-09T14:10:30;21.80;99.90
41262;DHT22;29629;52.532;13.352;2022-07-09T14:12:57;21.80;99.90
41262;DHT22;29629;52.532;13.352;2022-07-09T14:15:24;21.80;99.90
41262;DHT22;29629;52.532;13.352;2022-07-09T14:17:51;21.90;99.90
41262;DHT22;29629;52.532;13.352;2022-07-09T14:20:38;21.90;99.90
41262;DHT22;29629;52.532;13.352;2022-07-09T14:23:04;21.80;99.90
41262;DHT22;29629;52.532;13.352;2022-07-09T14:25:32;21.80;99.90
41262;DHT22;29629;52.532;13.352;2022-07-09T14:27:59;21.90;99.90
41262;DHT22;29629;52.532;13.352;2022-07-09T14:30:26;21.90;99.90
41262;DHT22;29629;52.532;13.352;2022-07-09T14:32:53;22.10;99.90
41262;DHT22;29629;52.532;13.352;2022-07-09T14:35:20;22.20;99.90
41262;DHT22;29629;52.532;13.352;2022-07-09T14:37:49;22.30;99.90
41262;DHT22;29629;52.532;13.352;2022-07-09T14:40:17;22.50;99.90
41262;DHT22;29629;52.532;13.352;2022-07-09T14:42:45;22.30;99.90
41262;DHT22;29629;52.532;13.352;2022-07-09T14:45:12;22.30;99.90
41262;DHT22;29629;52.532;13.352;2022-07-09T14:47:39;21.90;99.90
41262;DHT22;29629;52.532;13.352;2022-07-09T14:50:06;21.80;99.90
41262;DHT22;29629;52.532;13.352;2022-07-09T14:52:33;21.90;99.90
41262;DHT22;29629;52.532;13.352;2022-07-09T14:55:00;22.10;99.90
41262;DHT22;29629;52.532;13.352;2022-07-09T14:57:27;22.20;99.90
41262;DHT22;29629;52.532;13.352;2022-07-09T14:59:55;22.20;99.90
41262;DHT22;29629;52.532;13.352;2022-07-09T15:02:22;22.20;99.90
41262;DHT22;29629;52.532;13.352;2022-07-09T15:04:48;21.90;99.90
41262;DHT22;29629;52.532;13.352;2022-07-09T15:07:15;21.80;99.90
41262;DHT22;29629;52.532;13.352;2022-07-09T15:09:42;21.80;99.90
41262;DHT22;29629;52.532;13.352;2022-07-09T15:12:09;21.80;99.90
41262;DHT22;29629;52.532;13.352;2022-07-09T15:14:35;21.70;99.90
41262;DHT22;29629;52.532;13.352;2022-07-09T15:17:04;21.70;99.90